Time;durP1;ratioP1;P1;durP2;ratioP2;P2;SDS_P1;SDS_P2;PMS_P1;PMS_P2;Temp;Humidity;BMP_temperature;BMP_pressure;BME280_temperature;BME280_humidity;BME280_pressure;Samples;Min_cycle;Max_cycle;Signal;HPM_P1;HPM_P2
2023/07/19 00:02:23;;;;;;;6.00;2.78;;;;;;;;;;5111835;28;20131;-71
2023/07/19 00:04:49;;;;;;;6.47;2.45;;;;;;;;;;5112065;28;20059;-70
2023/07/19 00:07:16;;;;;;;5.00;2.45;;;;;;;;;;5111845;28;20052;-71
2023/07/19 00:09:43;;;;;;;5.80;2.80;;;;;;;;;;5112156;28;20411;-70
2023/07/19 00:12:09;;;;;;;6.88;2.88;;;;;;;;;;5112050;28;20048;-70
2023/07/19 00:14:36;;;;;;;7.80;2.72;;;;;;;;;;5112377;28;20040;-70
2023/07/19 00:17:03;;;;;;;4.93;2.30;;;;;;;;;;5111761;28;20043;-70
2023/07/19 00:19:30;;;;;;;7.38;2.45;;;;;;;;;;5112128;28;20048;-74
2023/07/19 00:21:56;;;;;;;4.43;2.15;;;;;;;;;;5111169;28;20047;-71
2023/07/19 00:24:23;;;;;;;5.40;2.63;;;;;;;;;;5111723;28;20043;-70
2023/07/19 00:26:50;;;;;;;4.68;1.90;;;;;;;;;;5111814;28;20048;-70
2023/07/19 00:29:17;;;;;;;5.57;2.15;;;;;;;;;;5093731;28;20074;-73
2023/07/19 00:31:43;;;;;;;5.88;2.10;;;;;;;;;;5111483;28;20578;-71
2023/07/19 00:34:10;;;;;;;5.15;2.13;;;;;;;;;;5111340;28;20557;-72
2023/07/19 00:36:37;;;;;;;6.32;2.70;;;;;;;;;;5111556;28;20150;-71
2023/07/19 00:39:04;;;;;;;5.50;2.40;;;;;;;;;;5110698;28;20048;-70
2023/07/19 00:41:30;;;;;;;5.15;2.42;;;;;;;;;;5111024;28;20043;-75
2023/07/19 00:43:58;;;;;;;8.60;2.70;;;;;;;;;;5111157;28;20487;-71
2023/07/19 00:46:26;;;;;;;4.50;2.20;;;;;;;;;;5111153;28;20040;-73
2023/07/19 00:48:53;;;;;;;5.53;2.42;;;;;;;;;;5093124;28;20544;-70
2023/07/19 00:51:21;;;;;;;5.05;2.50;;;;;;;;;;5111137;28;20495;-70
2023/07/19 00:53:49;;;;;;;5.43;2.42;;;;;;;;;;5110584;28;20052;-71
2023/07/19 00:56:17;;;;;;;5.93;2.45;;;;;;;;;;5110930;28;20062;-71
2023/07/19 00:58:44;;;;;;;7.25;2.47;;;;;;;;;;5110859;28;20051;-72
2023/07/19 01:01:11;;;;;;;5.82;2.22;;;;;;;;;;5111123;28;20055;-70
2023/07/19 01:03:38;;;;;;;4.78;2.45;;;;;;;;;;5110745;28;20566;-71
2023/07/19 01:06:05;;;;;;;5.20;2.28;;;;;;;;;;5110887;28;20055;-71
2023/07/19 01:08:32;;;;;;;4.95;2.30;;;;;;;;;;5110366;28;20051;-70
2023/07/19 01:11:00;;;;;;;3.70;1.90;;;;;;;;;;5111032;28;20051;-70
2023/07/19 01:13:27;;;;;;;7.18;2.22;;;;;;;;;;5110508;28;20089;-73
2023/07/19 01:15:53;;;;;;;5.80;2.50;;;;;;;;;;5110629;28;20102;-71
2023/07/19 01:18:20;;;;;;;6.20;2.38;;;;;;;;;;5110625;28;20048;-72
2023/07/19 01:20:47;;;;;;;5.35;2.63;;;;;;;;;;5110833;28;20047;-70
2023/07/19 01:23:14;;;;;;;8.13;2.75;;;;;;;;;;5109889;28;20446;-71
2023/07/19 01:25:40;;;;;;;5.05;2.13;;;;;;;;;;5110588;28;20052;-74
2023/07/19 01:28:07;;;;;;;5.55;2.50;;;;;;;;;;5110266;28;20055;-72
2023/07/19 01:30:36;;;;;;;5.25;2.47;;;;;;;;;;5110236;28;20052;-72
2023/07/19 01:33:03;;;;;;;4.10;2.20;;;;;;;;;;5110262;28;20039;-75
2023/07/19 01:35:32;;;;;;;4.95;2.50;;;;;;;;;;5110163;28;20083;-73
2023/07/19 01:37:59;;;;;;;5.13;2.22;;;;;;;;;;5109750;28;20455;-70
2023/07/19 01:40:25;;;;;;;8.13;2.20;;;;;;;;;;5110364;28;20055;-71
2023/07/19 01:42:52;;;;;;;6.38;2.33;;;;;;;;;;5110071;28;20140;-72
2023/07/19 01:45:19;;;;;;;4.13;2.10;;;;;;;;;;5110304;28;20571;-75
2023/07/19 01:47:46;;;;;;;8.88;2.53;;;;;;;;;;5109881;28;20059;-76
2023/07/19 01:50:12;;;;;;;6.88;2.40;;;;;;;;;;5110279;28;20072;-74
2023/07/19 01:52:39;;;;;;;5.40;2.63;;;;;;;;;;5109326;28;20513;-77
2023/07/19 01:55:06;;;;;;;5.00;2.10;;;;;;;;;;5110325;28;20046;-72
2023/07/19 01:57:33;;;;;;;3.92;2.10;;;;;;;;;;5109792;28;20075;-76
2023/07/19 02:00:00;;;;;;;5.60;2.35;;;;;;;;;;5110122;28;20123;-75
2023/07/19 02:02:27;;;;;;;5.30;2.30;;;;;;;;;;5109767;28;20134;-74
2023/07/19 02:04:54;;;;;;;5.93;2.35;;;;;;;;;;5109660;28;20050;-76
2023/07/19 02:07:21;;;;;;;4.57;2.25;;;;;;;;;;5109081;28;20050;-73
2023/07/19 02:09:47;;;;;;;5.68;2.40;;;;;;;;;;5109946;28;20043;-74
2023/07/19 02:12:14;;;;;;;6.43;2.40;;;;;;;;;;5109528;28;20082;-74
2023/07/19 02:14:41;;;;;;;8.15;2.42;;;;;;;;;;5109418;28;20047;-72
2023/07/19 02:17:07;;;;;;;5.78;2.25;;;;;;;;;;5109367;28;20312;-75
2023/07/19 02:19:34;;;;;;;5.15;2.42;;;;;;;;;;5109668;28;20051;-73
2023/07/19 02:22:01;;;;;;;5.78;2.42;;;;;;;;;;5109198;28;20050;-73
2023/07/19 02:24:28;;;;;;;5.95;2.30;;;;;;;;;;5109195;28;20150;-75
2023/07/19 02:26:54;;;;;;;6.68;2.20;;;;;;;;;;5109432;28;20048;-73
2023/07/19 02:29:21;;;;;;;6.03;2.20;;;;;;;;;;5108983;28;20064;-72
2023/07/19 02:31:51;;;;;;;3.70;1.75;;;;;;;;;;5109572;28;20075;-75
2023/07/19 02:34:18;;;;;;;7.65;2.15;;;;;;;;;;5109330;28;20039;-74
2023/07/19 02:36:48;;;;;;;5.93;2.10;;;;;;;;;;5109715;28;20069;-74
2023/07/19 02:39:14;;;;;;;5.88;2.65;;;;;;;;;;5108974;28;20051;-72
2023/07/19 02:41:41;;;;;;;5.00;2.17;;;;;;;;;;5109642;28;20063;-74
2023/07/19 02:44:10;;;;;;;4.97;2.60;;;;;;;;;;5109052;28;20046;-73
2023/07/19 02:46:37;;;;;;;5.85;2.25;;;;;;;;;;5109546;28;20050;-74
2023/07/19 02:49:04;;;;;;;5.63;2.50;;;;;;;;;;5108939;28;20065;-77
2023/07/19 02:51:31;;;;;;;5.72;2.60;;;;;;;;;;5109228;28;20050;-75
2023/07/19 02:53:57;;;;;;;7.20;2.28;;;;;;;;;;5108776;28;20047;-75
2023/07/19 02:56:24;;;;;;;7.40;2.22;;;;;;;;;;5109721;28;20046;-76
2023/07/19 02:58:50;;;;;;;6.13;2.20;;;;;;;;;;5109034;28;20052;-77
2023/07/19 03:01:19;;;;;;;6.63;2.45;;;;;;;;;;5108903;28;20544;-78
2023/07/19 03:03:48;;;;;;;4.95;2.17;;;;;;;;;;5108520;28;20456;-77
2023/07/19 03:06:15;;;;;;;6.28;2.20;;;;;;;;;;5108917;28;20047;-78
2023/07/19 03:08:43;;;;;;;4.78;2.15;;;;;;;;;;5108719;28;20048;-76
2023/07/19 03:11:10;;;;;;;6.78;2.22;;;;;;;;;;5109118;28;20422;-78
2023/07/19 03:13:36;;;;;;;4.53;2.03;;;;;;;;;;5108857;28;20047;-77
2023/07/19 03:16:05;;;;;;;5.88;2.13;;;;;;;;;;5109201;28;20051;-76
2023/07/19 03:18:32;;;;;;;6.10;2.10;;;;;;;;;;5108768;28;20039;-78
2023/07/19 03:20:59;;;;;;;7.32;2.22;;;;;;;;;;5109098;28;20051;-77
2023/07/19 03:23:30;;;;;;;5.13;2.30;;;;;;;;;;5108080;28;20427;-78
2023/07/19 03:26:00;;;;;;;4.43;2.25;;;;;;;;;;5109064;28;20040;-78
2023/07/19 03:28:29;;;;;;;4.83;2.50;;;;;;;;;;5109983;28;20052;-78
2023/07/19 03:30:57;;;;;;;8.77;2.30;;;;;;;;;;5112646;28;20043;-78
2023/07/19 03:33:26;;;;;;;5.13;1.83;;;;;;;;;;5112652;28;20039;-78
2023/07/19 03:35:52;;;;;;;5.18;2.30;;;;;;;;;;5112509;28;20459;-77
2023/07/19 03:38:20;;;;;;;6.05;2.40;;;;;;;;;;5111946;28;20094;-77
2023/07/19 03:40:46;;;;;;;4.38;2.03;;;;;;;;;;5112816;28;20051;-77
2023/07/19 03:43:13;;;;;;;5.13;2.10;;;;;;;;;;5112566;28;20046;-77
2023/07/19 03:45:40;;;;;;;4.70;2.17;;;;;;;;;;5112705;28;20056;-77
2023/07/19 03:48:07;;;;;;;4.13;2.10;;;;;;;;;;5112316;28;20059;-78
2023/07/19 03:50:33;;;;;;;5.95;2.20;;;;;;;;;;5112620;28;20104;-78
2023/07/19 03:53:01;;;;;;;4.25;2.08;;;;;;;;;;5111891;28;20418;-76
2023/07/19 03:55:28;;;;;;;4.78;2.17;;;;;;;;;;5111948;28;20118;-77
2023/07/19 03:57:55;;;;;;;7.95;2.40;;;;;;;;;;5112207;28;20614;-77
2023/07/19 04:00:21;;;;;;;5.53;2.10;;;;;;;;;;5112078;28;20530;-77
2023/07/19 04:02:48;;;;;;;7.55;2.50;;;;;;;;;;5112029;28;20051;-77
2023/07/19 04:05:15;;;;;;;9.02;2.53;;;;;;;;;;5112205;28;20097;-78
2023/07/19 04:07:42;;;;;;;6.10;2.72;;;;;;;;;;5111727;28;20044;-77
2023/07/19 04:10:09;;;;;;;6.10;2.45;;;;;;;;;;5111791;28;20054;-76
2023/07/19 04:12:36;;;;;;;6.10;2.13;;;;;;;;;;5111904;28;20048;-78
2023/07/19 04:15:03;;;;;;;4.85;2.22;;;;;;;;;;5111706;28;20044;-77
2023/07/19 04:17:30;;;;;;;10.10;2.65;;;;;;;;;;5112034;28;20051;-77
2023/07/19 04:19:56;;;;;;;5.70;2.30;;;;;;;;;;5111682;28;20047;-77
2023/07/19 04:22:23;;;;;;;4.90;2.28;;;;;;;;;;5112060;28;20109;-76
2023/07/19 04:24:50;;;;;;;5.72;2.17;;;;;;;;;;5111267;28;20441;-77
2023/07/19 04:27:16;;;;;;;5.78;2.28;;;;;;;;;;5111673;28;20376;-77
2023/07/19 04:29:43;;;;;;;4.70;2.38;;;;;;;;;;5111546;28;20056;-76
2023/07/19 04:32:10;;;;;;;5.63;2.28;;;;;;;;;;5111492;28;20132;-78
2023/07/19 04:34:36;;;;;;;9.35;2.45;;;;;;;;;;5111285;28;20039;-76
2023/07/19 04:37:03;;;;;;;5.93;2.22;;;;;;;;;;5111505;28;20047;-75
2023/07/19 04:39:30;;;;;;;7.72;2.40;;;;;;;;;;5110892;28;20121;-77
2023/07/19 04:41:56;;;;;;;5.35;2.28;;;;;;;;;;5111621;28;20048;-78
2023/07/19 04:44:23;;;;;;;4.03;2.05;;;;;;;;;;5110870;28;20054;-76
2023/07/19 04:46:49;;;;;;;4.55;2.10;;;;;;;;;;5111495;28;20556;-78
2023/07/19 04:49:18;;;;;;;5.38;2.20;;;;;;;;;;5111083;28;20048;-77
2023/07/19 04:51:44;;;;;;;7.90;2.60;;;;;;;;;;5111258;28;20050;-77
2023/07/19 04:54:11;;;;;;;6.82;2.47;;;;;;;;;;5110895;28;20130;-76
2023/07/19 04:56:38;;;;;;;4.95;2.50;;;;;;;;;;5093353;28;20047;-77
2023/07/19 04:59:04;;;;;;;6.90;2.50;;;;;;;;;;5111232;28;20047;-77
2023/07/19 05:01:31;;;;;;;5.25;2.38;;;;;;;;;;5111229;28;20453;-75
2023/07/19 05:03:58;;;;;;;5.68;2.22;;;;;;;;;;5111182;28;20074;-77
2023/07/19 05:06:24;;;;;;;4.85;2.17;;;;;;;;;;5110833;28;20059;-76
2023/07/19 05:08:51;;;;;;;6.50;1.92;;;;;;;;;;5110647;28;20052;-76
2023/07/19 05:11:19;;;;;;;9.45;2.60;;;;;;;;;;5110763;28;20051;-77
2023/07/19 05:13:49;;;;;;;5.82;2.13;;;;;;;;;;5110951;28;20044;-76
2023/07/19 05:16:17;;;;;;;11.32;2.30;;;;;;;;;;5110541;28;20079;-76
2023/07/19 05:18:45;;;;;;;4.05;2.15;;;;;;;;;;5111100;28;20074;-76
2023/07/19 05:21:11;;;;;;;6.28;2.33;;;;;;;;;;5110438;28;20047;-75
2023/07/19 05:23:38;;;;;;;6.13;2.42;;;;;;;;;;5110314;28;20040;-76
2023/07/19 05:26:04;;;;;;;5.47;2.20;;;;;;;;;;5110412;28;20276;-74
2023/07/19 05:28:31;;;;;;;3.55;2.17;;;;;;;;;;5110378;28;20051;-76
2023/07/19 05:31:05;;;;;;;7.35;2.25;;;;;;;;;;5110382;28;20062;-76
2023/07/19 05:33:32;;;;;;;9.40;2.65;;;;;;;;;;5110552;28;20073;-77
2023/07/19 05:36:00;;;;;;;5.22;2.30;;;;;;;;;;5110216;28;20523;-76
2023/07/19 05:38:28;;;;;;;5.20;2.10;;;;;;;;;;5109648;28;20050;-77
2023/07/19 05:41:01;;;;;;;6.88;2.47;;;;;;;;;;5110232;28;20514;-76
2023/07/19 05:43:29;;;;;;;4.90;2.13;;;;;;;;;;5110063;28;20050;-76
2023/07/19 05:46:06;;;;;;;3.83;1.80;;;;;;;;;;5110131;28;20048;-76
2023/07/19 05:48:34;;;;;;;6.80;2.13;;;;;;;;;;5110377;28;20047;-76
2023/07/19 05:51:05;;;;;;;7.57;2.42;;;;;;;;;;5108963;28;20243;-74
2023/07/19 05:53:33;;;;;;;5.95;2.08;;;;;;;;;;5121101;28;20065;-76
2023/07/19 05:55:59;;;;;;;4.10;2.13;;;;;;;;;;5112521;28;20491;-77
2023/07/19 05:58:27;;;;;;;4.75;2.42;;;;;;;;;;5109889;28;20101;-75
2023/07/19 06:00:54;;;;;;;4.15;2.00;;;;;;;;;;5109706;28;20051;-74
2023/07/19 06:03:21;;;;;;;5.95;2.20;;;;;;;;;;5109558;28;20051;-77
2023/07/19 06:05:48;;;;;;;5.63;2.30;;;;;;;;;;5109463;28;20640;-76
2023/07/19 06:08:14;;;;;;;3.85;1.90;;;;;;;;;;5111628;28;20066;-76
2023/07/19 06:10:51;;;;;;;8.18;2.40;;;;;;;;;;5124226;27;20173;-75
2023/07/19 06:13:17;;;;;;;4.32;1.95;;;;;;;;;;5136370;27;20050;-77
2023/07/19 06:15:44;;;;;;;6.45;2.45;;;;;;;;;;5135894;27;20051;-73
2023/07/19 06:18:11;;;;;;;5.68;2.15;;;;;;;;;;5130992;27;20105;-77
2023/07/19 06:20:38;;;;;;;3.75;2.20;;;;;;;;;;5133853;27;20047;-73
2023/07/19 06:23:05;;;;;;;3.25;1.80;;;;;;;;;;5134792;27;20058;-75
2023/07/19 06:25:31;;;;;;;7.95;2.30;;;;;;;;;;5139531;27;20106;-75
2023/07/19 06:27:59;;;;;;;5.03;1.85;;;;;;;;;;5141759;27;20069;-74
2023/07/19 06:30:26;;;;;;;5.70;2.42;;;;;;;;;;5135384;27;20063;-76
2023/07/19 06:32:53;;;;;;;5.93;2.47;;;;;;;;;;5134902;27;20050;-76
2023/07/19 06:35:20;;;;;;;7.07;2.25;;;;;;;;;;5130249;27;20044;-75
2023/07/19 06:37:47;;;;;;;3.65;2.00;;;;;;;;;;5136736;27;20047;-73
2023/07/19 06:40:15;;;;;;;5.10;2.13;;;;;;;;;;5130593;27;20138;-70
2023/07/19 06:42:45;;;;;;;3.80;2.20;;;;;;;;;;5138500;27;20043;-72
2023/07/19 06:45:11;;;;;;;3.47;1.98;;;;;;;;;;5138535;28;20050;-72
2023/07/19 06:47:38;;;;;;;5.40;2.20;;;;;;;;;;5130215;28;20051;-73
2023/07/19 06:50:05;;;;;;;4.22;2.05;;;;;;;;;;5129800;28;20043;-73
2023/07/19 06:52:32;;;;;;;4.10;2.20;;;;;;;;;;5129277;28;20055;-73
2023/07/19 06:54:59;;;;;;;3.03;1.95;;;;;;;;;;5129805;28;20050;-72
2023/07/19 06:57:25;;;;;;;6.53;2.05;;;;;;;;;;5129483;28;20047;-73
2023/07/19 06:59:52;;;;;;;4.40;2.40;;;;;;;;;;5131858;28;20050;-73
2023/07/19 07:02:19;;;;;;;3.22;1.90;;;;;;;;;;5130789;27;20046;-74
2023/07/19 07:04:46;;;;;;;8.93;2.38;;;;;;;;;;5134082;27;20080;-73
2023/07/19 07:07:15;;;;;;;4.32;2.20;;;;;;;;;;5133074;27;20088;-74
2023/07/19 07:09:42;;;;;;;6.90;2.47;;;;;;;;;;5133979;27;20074;-74
2023/07/19 07:12:10;;;;;;;6.35;2.15;;;;;;;;;;5133865;27;20066;-73
2023/07/19 07:14:38;;;;;;;5.10;2.10;;;;;;;;;;5118756;27;20058;-72
2023/07/19 07:17:06;;;;;;;5.57;2.50;;;;;;;;;;5125055;27;20051;-77
2023/07/19 07:19:33;;;;;;;4.65;2.65;;;;;;;;;;5145323;27;20233;-73
2023/07/19 07:22:00;;;;;;;4.15;2.20;;;;;;;;;;5144519;27;20328;-73
2023/07/19 07:24:26;;;;;;;5.03;2.28;;;;;;;;;;5135233;27;20070;-72
2023/07/19 07:26:53;;;;;;;5.72;2.60;;;;;;;;;;5138562;27;20047;-74
2023/07/19 07:29:20;;;;;;;5.43;2.08;;;;;;;;;;5121916;27;20063;-73
2023/07/19 07:31:46;;;;;;;7.65;2.47;;;;;;;;;;5130990;27;20355;-71
2023/07/19 07:34:13;;;;;;;5.53;2.17;;;;;;;;;;5138375;27;20551;-76
2023/07/19 07:36:40;;;;;;;3.65;2.08;;;;;;;;;;5137159;27;20043;-76
2023/07/19 07:39:06;;;;;;;46.35;7.80;;;;;;;;;;5134469;27;20050;-73
2023/07/19 07:41:34;;;;;;;4.72;2.30;;;;;;;;;;5135494;27;20066;-73
2023/07/19 07:44:01;;;;;;;8.48;2.63;;;;;;;;;;5132889;27;20039;-83
2023/07/19 07:46:29;;;;;;;5.32;2.80;;;;;;;;;;5134434;27;20104;-74
2023/07/19 07:48:59;;;;;;;6.85;2.63;;;;;;;;;;5132832;27;20039;-72
2023/07/19 07:51:29;;;;;;;6.40;2.05;;;;;;;;;;5132912;27;20050;-73
2023/07/19 07:53:55;;;;;;;4.27;2.33;;;;;;;;;;5132367;27;20047;-72
2023/07/19 07:56:24;;;;;;;5.85;2.22;;;;;;;;;;5133035;27;20082;-73
2023/07/19 07:58:50;;;;;;;4.10;2.08;;;;;;;;;;5132722;27;20438;-73
2023/07/19 08:01:17;;;;;;;6.88;2.50;;;;;;;;;;5132745;27;20422;-73
2023/07/19 08:03:44;;;;;;;4.85;2.25;;;;;;;;;;5142213;27;20039;-72
2023/07/19 08:06:11;;;;;;;6.43;1.98;;;;;;;;;;5144265;27;20043;-75
2023/07/19 08:08:38;;;;;;;5.28;2.60;;;;;;;;;;5144234;27;20031;-75
2023/07/19 08:11:05;;;;;;;4.55;2.20;;;;;;;;;;5142319;27;20129;-72
2023/07/19 08:13:33;;;;;;;5.32;2.35;;;;;;;;;;5143997;27;20043;-76
2023/07/19 08:15:59;;;;;;;7.03;2.47;;;;;;;;;;5142403;27;20047;-73
2023/07/19 08:18:26;;;;;;;8.43;2.22;;;;;;;;;;5143896;27;20351;-73
2023/07/19 08:20:54;;;;;;;6.15;2.40;;;;;;;;;;5143792;27;20047;-75
2023/07/19 08:23:20;;;;;;;4.18;2.17;;;;;;;;;;5143801;27;20043;-75
2023/07/19 08:25:47;;;;;;;7.82;2.50;;;;;;;;;;5144065;27;20081;-73
2023/07/19 08:28:14;;;;;;;5.05;2.60;;;;;;;;;;5143646;27;20043;-75
2023/07/19 08:30:41;;;;;;;4.63;2.53;;;;;;;;;;5143617;27;20398;-77
2023/07/19 08:33:10;;;;;;;6.53;2.30;;;;;;;;;;5143967;27;20106;-75
2023/07/19 08:35:37;;;;;;;5.00;2.45;;;;;;;;;;5142479;27;20327;-75
2023/07/19 08:38:04;;;;;;;4.13;2.20;;;;;;;;;;5137063;27;20054;-75
2023/07/19 08:40:33;;;;;;;10.77;2.38;;;;;;;;;;5138321;27;20051;-73
2023/07/19 08:43:07;;;;;;;7.50;2.55;;;;;;;;;;5133182;27;20039;-72
2023/07/19 08:45:38;;;;;;;3.90;1.98;;;;;;;;;;5132735;27;20067;-75
2023/07/19 08:48:07;;;;;;;5.55;2.10;;;;;;;;;;5133018;27;20452;-72
2023/07/19 08:50:36;;;;;;;8.38;2.30;;;;;;;;;;5135161;27;20043;-75
2023/07/19 08:53:04;;;;;;;6.15;2.40;;;;;;;;;;5138226;27;20498;-81
2023/07/19 08:55:31;;;;;;;6.25;2.40;;;;;;;;;;5123450;27;20111;-74
2023/07/19 08:57:59;;;;;;;4.43;2.33;;;;;;;;;;5130351;27;20043;-72
2023/07/19 09:00:30;;;;;;;3.85;2.05;;;;;;;;;;5143286;27;20102;-75
2023/07/19 09:02:57;;;;;;;3.80;2.08;;;;;;;;;;5137003;27;20043;-72
2023/07/19 09:05:27;;;;;;;5.07;2.30;;;;;;;;;;5131889;27;20092;-74
2023/07/19 09:07:53;;;;;;;6.55;2.28;;;;;;;;;;5131169;27;20050;-79
2023/07/19 09:10:20;;;;;;;4.75;2.10;;;;;;;;;;5131287;27;20043;-71
2023/07/19 09:12:47;;;;;;;4.38;2.28;;;;;;;;;;5110684;28;20130;-72
2023/07/19 09:15:14;;;;;;;3.22;2.10;;;;;;;;;;5114728;28;20093;-72
2023/07/19 09:17:45;;;;;;;3.33;1.92;;;;;;;;;;5120361;28;20044;-75
2023/07/19 09:20:13;;;;;;;9.07;2.10;;;;;;;;;;5116973;28;20047;-73
2023/07/19 09:22:40;;;;;;;5.95;2.45;;;;;;;;;;5111521;28;20047;-76
2023/07/19 09:25:09;;;;;;;4.60;2.30;;;;;;;;;;5114765;28;20053;-69
2023/07/19 09:27:37;;;;;;;6.30;2.28;;;;;;;;;;5118405;27;20047;-72
2023/07/19 09:30:09;;;;;;;5.90;2.33;;;;;;;;;;5132863;27;20059;-76
2023/07/19 09:32:37;;;;;;;6.60;2.30;;;;;;;;;;5130720;27;20063;-69
2023/07/19 09:35:05;;;;;;;5.30;2.30;;;;;;;;;;5129491;27;20487;-70
2023/07/19 09:37:32;;;;;;;3.95;2.10;;;;;;;;;;5130780;27;20172;-69
2023/07/19 09:39:59;;;;;;;4.25;2.30;;;;;;;;;;5130391;27;20054;-69
2023/07/19 09:42:29;;;;;;;6.57;2.35;;;;;;;;;;5129663;27;20051;-69
2023/07/19 09:44:57;;;;;;;3.83;2.40;;;;;;;;;;5131332;27;20055;-70
2023/07/19 09:47:24;;;;;;;4.65;2.20;;;;;;;;;;5129508;27;20285;-72
2023/07/19 09:49:56;;;;;;;4.85;2.30;;;;;;;;;;5129066;27;20065;-71
2023/07/19 09:52:24;;;;;;;6.38;2.50;;;;;;;;;;5128309;27;20051;-69
2023/07/19 09:54:53;;;;;;;4.05;2.03;;;;;;;;;;5129002;27;20560;-69
2023/07/19 09:57:24;;;;;;;5.43;1.98;;;;;;;;;;5129093;27;20053;-68
2023/07/19 09:59:50;;;;;;;;;;;;;;;;;;5129709;27;20058;-69
2023/07/19 10:02:20;;;;;;;4.45;2.10;;;;;;;;;;5129993;27;20023;-70
2023/07/19 10:04:47;;;;;;;3.85;2.13;;;;;;;;;;5131254;27;20043;-69
2023/07/19 10:07:24;;;;;;;3.63;2.22;;;;;;;;;;5130055;27;20491;-72
2023/07/19 10:10:01;;;;;;;3.75;1.88;;;;;;;;;;5130559;27;20494;-74
2023/07/19 10:12:28;;;;;;;3.55;2.17;;;;;;;;;;5130451;27;20054;-69
2023/07/19 10:14:56;;;;;;;4.05;2.28;;;;;;;;;;5130541;27;20054;-74
2023/07/19 10:17:23;;;;;;;3.90;2.17;;;;;;;;;;5130184;27;20055;-71
2023/07/19 10:20:13;;;;;;;4.50;1.98;;;;;;;;;;5130707;27;20043;-69
2023/07/19 10:22:52;;;;;;;3.33;1.98;;;;;;;;;;5129982;27;20130;-71
2023/07/19 10:25:31;;;;;;;4.43;2.20;;;;;;;;;;5130575;27;20043;-69
2023/07/19 10:28:12;;;;;;;4.75;2.30;;;;;;;;;;5129974;27;20457;-72
2023/07/19 10:30:42;;;;;;;;;;;;;;;;;;5130572;27;20047;-72
2023/07/19 10:33:09;;;;;;;3.75;2.13;;;;;;;;;;5129960;27;19920;-70
2023/07/19 10:35:36;;;;;;;4.07;2.05;;;;;;;;;;5130400;27;20047;-69
2023/07/19 10:38:03;;;;;;;4.03;2.20;;;;;;;;;;5128872;27;20051;-72
2023/07/19 10:40:31;;;;;;;7.38;2.15;;;;;;;;;;5130685;27;20043;-69
2023/07/19 10:42:58;;;;;;;6.88;1.80;;;;;;;;;;5130348;28;20118;-70
2023/07/19 10:45:26;;;;;;;3.80;1.90;;;;;;;;;;5130083;27;20463;-69
2023/07/19 10:47:53;;;;;;;5.25;2.03;;;;;;;;;;5129867;28;20050;-69
2023/07/19 10:50:24;;;;;;;4.20;2.30;;;;;;;;;;5130059;28;20082;-69
2023/07/19 10:52:51;;;;;;;2.80;1.83;;;;;;;;;;5129692;28;20058;-70
2023/07/19 10:55:18;;;;;;;4.90;1.85;;;;;;;;;;5130451;28;20039;-69
2023/07/19 10:58:05;;;;;;;3.47;2.05;;;;;;;;;;5129802;27;20188;-71
2023/07/19 11:00:35;;;;;;;3.83;1.90;;;;;;;;;;5130075;28;20055;-73
2023/07/19 11:03:01;;;;;;;3.33;1.70;;;;;;;;;;5129848;27;20558;-72
2023/07/19 11:05:28;;;;;;;3.90;2.00;;;;;;;;;;5129963;27;20047;-75
2023/07/19 11:07:55;;;;;;;5.50;1.77;;;;;;;;;;5129159;27;20054;-71
2023/07/19 11:10:27;;;;;;;4.90;2.17;;;;;;;;;;5129785;28;20051;-69
2023/07/19 11:12:53;;;;;;;6.93;2.20;;;;;;;;;;5129814;27;20047;-75
2023/07/19 11:15:20;;;;;;;3.58;2.03;;;;;;;;;;5129685;28;20050;-71
2023/07/19 11:17:48;;;;;;;5.70;2.10;;;;;;;;;;5129879;28;20498;-72
2023/07/19 11:20:27;;;;;;;5.85;2.28;;;;;;;;;;5129846;28;20079;-70
2023/07/19 11:23:05;;;;;;;6.45;1.92;;;;;;;;;;5129754;28;20039;-71
2023/07/19 11:25:32;;;;;;;4.25;1.70;;;;;;;;;;5129683;28;20495;-75
2023/07/19 11:27:58;;;;;;;3.08;1.75;;;;;;;;;;5129537;27;20045;-70
2023/07/19 11:30:39;;;;;;;3.05;1.73;;;;;;;;;;5129271;27;20055;-73
2023/07/19 11:33:09;;;;;;;3.78;2.10;;;;;;;;;;5129694;28;20541;-71
2023/07/19 11:35:37;;;;;;;4.57;2.00;;;;;;;;;;5129654;28;20090;-73
2023/07/19 11:38:04;;;;;;;4.65;1.83;;;;;;;;;;5129166;28;20046;-74
2023/07/19 11:40:31;;;;;;;4.70;1.92;;;;;;;;;;5129835;28;20043;-70
2023/07/19 11:42:58;;;;;;;4.68;2.20;;;;;;;;;;5129657;27;20046;-72
2023/07/19 11:45:27;;;;;;;5.78;2.30;;;;;;;;;;5129198;27;20514;-73
2023/07/19 11:48:01;;;;;;;4.35;2.00;;;;;;;;;;5129542;28;20043;-69
2023/07/19 11:50:29;;;;;;;3.85;1.80;;;;;;;;;;5131882;27;20043;-70
2023/07/19 11:52:57;;;;;;;6.25;1.92;;;;;;;;;;5133272;27;20052;-70
2023/07/19 11:55:24;;;;;;;3.17;1.70;;;;;;;;;;5133048;27;20402;-70
2023/07/19 11:57:52;;;;;;;2.55;1.58;;;;;;;;;;5133357;27;20142;-68
2023/07/19 12:00:21;;;;;;;3.40;1.75;;;;;;;;;;5133010;27;20058;-73
2023/07/19 12:02:51;;;;;;;2.75;1.50;;;;;;;;;;5133225;27;20043;-70
2023/07/19 12:05:20;;;;;;;;;;;;;;;;;;5133230;27;20096;-69
2023/07/19 12:07:50;;;;;;;3.25;1.60;;;;;;;;;;5132397;27;19919;-74
2023/07/19 12:10:18;;;;;;;5.22;1.73;;;;;;;;;;5132851;27;20137;-72
2023/07/19 12:12:46;;;;;;;5.03;1.48;;;;;;;;;;5132897;27;20072;-69
2023/07/19 12:15:13;;;;;;;3.42;1.58;;;;;;;;;;5132930;27;20047;-71
2023/07/19 12:17:40;;;;;;;4.28;1.80;;;;;;;;;;5133204;27;20047;-74
2023/07/19 12:20:08;;;;;;;3.40;1.50;;;;;;;;;;5132715;27;20058;-69
2023/07/19 12:22:41;;;;;;;5.82;1.60;;;;;;;;;;5132104;27;20096;-72
2023/07/19 12:25:08;;;;;;;3.10;1.75;;;;;;;;;;5132181;27;20054;-69
2023/07/19 12:27:35;;;;;;;6.28;1.73;;;;;;;;;;5132483;27;20064;-70
2023/07/19 12:30:03;;;;;;;3.95;1.88;;;;;;;;;;5132315;27;20062;-71
2023/07/19 12:32:32;;;;;;;1.92;1.20;;;;;;;;;;5132618;27;20128;-68
2023/07/19 12:35:00;;;;;;;;;;;;;;;;;;5132713;27;20452;-73
2023/07/19 12:37:27;;;;;;;3.50;1.45;;;;;;;;;;5132093;27;20010;-74
2023/07/19 12:39:54;;;;;;;3.22;1.52;;;;;;;;;;5131921;27;20126;-70
2023/07/19 12:42:21;;;;;;;3.75;1.63;;;;;;;;;;5132416;27;20054;-69
2023/07/19 12:44:47;;;;;;;3.63;1.88;;;;;;;;;;5131887;27;20054;-70
2023/07/19 12:47:15;;;;;;;5.32;1.83;;;;;;;;;;5132127;27;20047;-77
2023/07/19 12:49:45;;;;;;;4.20;1.70;;;;;;;;;;5132049;27;20043;-77
2023/07/19 12:52:12;;;;;;;4.28;1.60;;;;;;;;;;5131940;27;20112;-69
2023/07/19 12:54:39;;;;;;;4.93;1.70;;;;;;;;;;5131817;27;20053;-70
2023/07/19 12:57:06;;;;;;;3.50;1.50;;;;;;;;;;5132111;27;20123;-71
2023/07/19 12:59:32;;;;;;;5.00;1.38;;;;;;;;;;5131569;27;20430;-71
2023/07/19 13:02:00;;;;;;;2.70;1.40;;;;;;;;;;5131823;27;20051;-69
2023/07/19 13:04:27;;;;;;;2.28;1.40;;;;;;;;;;5131652;27;20077;-69
2023/07/19 13:06:54;;;;;;;5.47;1.85;;;;;;;;;;5131790;27;20047;-70
2023/07/19 13:09:21;;;;;;;4.07;1.75;;;;;;;;;;5131690;27;20047;-70
2023/07/19 13:11:48;;;;;;;5.35;2.03;;;;;;;;;;5131987;27;20051;-69
2023/07/19 13:14:15;;;;;;;4.15;1.77;;;;;;;;;;5131963;27;20050;-70
2023/07/19 13:16:41;;;;;;;6.07;1.98;;;;;;;;;;5131507;27;20044;-69
2023/07/19 13:19:09;;;;;;;5.90;1.55;;;;;;;;;;5131306;27;20658;-69
2023/07/19 13:21:36;;;;;;;3.63;1.75;;;;;;;;;;5131375;27;20103;-69
2023/07/19 13:24:03;;;;;;;5.78;1.83;;;;;;;;;;5131229;27;20094;-70
2023/07/19 13:26:30;;;;;;;3.63;1.40;;;;;;;;;;5131244;27;20043;-69
2023/07/19 13:28:57;;;;;;;3.25;1.52;;;;;;;;;;5131352;27;20047;-71
2023/07/19 13:31:24;;;;;;;4.05;1.73;;;;;;;;;;5131035;27;20051;-69
2023/07/19 13:33:51;;;;;;;5.13;1.48;;;;;;;;;;5131421;27;20400;-69
2023/07/19 13:36:20;;;;;;;4.57;1.60;;;;;;;;;;5131019;27;20097;-69
2023/07/19 13:38:50;;;;;;;3.43;1.50;;;;;;;;;;5130797;27;20416;-68
2023/07/19 13:41:16;;;;;;;3.97;1.70;;;;;;;;;;5130893;27;20323;-71
2023/07/19 13:43:46;;;;;;;4.57;1.80;;;;;;;;;;5130873;27;20565;-72
2023/07/19 13:46:12;;;;;;;2.85;1.55;;;;;;;;;;5131098;27;20043;-69
2023/07/19 13:48:40;;;;;;;5.65;2.03;;;;;;;;;;5130953;27;20047;-69
2023/07/19 13:51:06;;;;;;;5.65;1.70;;;;;;;;;;5131189;27;20057;-70
2023/07/19 13:53:34;;;;;;;3.13;1.67;;;;;;;;;;5130822;27;20050;-69
2023/07/19 13:56:01;;;;;;;4.47;1.70;;;;;;;;;;5130676;27;20514;-71
2023/07/19 13:58:27;;;;;;;5.75;1.90;;;;;;;;;;5130963;27;20399;-76
2023/07/19 14:00:54;;;;;;;4.70;2.10;;;;;;;;;;5130611;27;20043;-71
2023/07/19 14:03:21;;;;;;;3.42;1.65;;;;;;;;;;5130865;27;20051;-71
2023/07/19 14:05:55;;;;;;;3.60;1.50;;;;;;;;;;5130582;27;20438;-70
2023/07/19 14:08:21;;;;;;;5.55;1.92;;;;;;;;;;5130934;27;20051;-70
2023/07/19 14:10:48;;;;;;;3.80;1.70;;;;;;;;;;5130253;27;20072;-69
2023/07/19 14:13:16;;;;;;;4.80;1.88;;;;;;;;;;5130282;27;20142;-71
2023/07/19 14:15:45;;;;;;;5.85;1.67;;;;;;;;;;5130247;27;20130;-77
2023/07/19 14:18:12;;;;;;;4.03;1.70;;;;;;;;;;5130472;27;20100;-72
2023/07/19 14:20:39;;;;;;;2.53;1.50;;;;;;;;;;5129922;27;20566;-69
2023/07/19 14:23:05;;;;;;;3.08;1.50;;;;;;;;;;5130127;27;20529;-72
2023/07/19 14:25:32;;;;;;;2.78;1.65;;;;;;;;;;5130279;27;20047;-72
2023/07/19 14:27:59;;;;;;;5.03;1.73;;;;;;;;;;5130501;27;20301;-78
2023/07/19 14:30:26;;;;;;;5.07;1.55;;;;;;;;;;5129997;27;20051;-70
2023/07/19 14:32:52;;;;;;;3.75;1.60;;;;;;;;;;5130447;27;20521;-73
2023/07/19 14:35:19;;;;;;;3.47;1.60;;;;;;;;;;5130228;27;20333;-74
2023/07/19 14:37:46;;;;;;;3.58;1.42;;;;;;;;;;5130081;27;20123;-72
2023/07/19 14:40:15;;;;;;;4.80;1.58;;;;;;;;;;5129888;27;20047;-72
2023/07/19 14:42:42;;;;;;;5.03;1.80;;;;;;;;;;5129864;27;20046;-71
2023/07/19 14:45:09;;;;;;;3.83;1.63;;;;;;;;;;5129874;27;20043;-69
2023/07/19 14:47:37;;;;;;;5.65;1.60;;;;;;;;;;5130182;28;20039;-69